Kezdőlap
METAR-TAF:

METAR-TAF

Repülőterek :

Tri-County Regional Airport

Lone Rock, Wisconsin, Amerikai Egyesült Államok

földrajzi szélesség: 43-12-43N, földrajzi hosszúság: 090-10-53W, magasság: 219 m

Jelenlegi meteorológiai megfigyelések

A jelentés 35 perccel ezelõtt készült, 16:56 UTC
Észak-északkeleti szél 6 kt
Hőmérséklet 12°C
Páratartalom 32%
Légköri nyomás 1029 hPa
Látótávolság: 16.1 km
Derült ég
enyhe esõ

METAR: KLNR 111656Z AUTO 03006KT 10SM -RA CLR 12/M04 A3039 RMK AO2 RAB48 SLP290 P0000 T01221044

Idő: 12:31 (17:31 UTC)


TAF: hiányzik

Meteorológiai megfigyelések és előrejelzések több, mint 4000 repülőtéren (METAR és TAF jelentéseket).

A térképen piros és sárga pontok jelzik az elérhető meteorológiai állomásokat.

Mozgassa az egeret a pont fölött, hogy megjelenjen az állomás neve.

Azután kattintson az időjárási megfigyelések és előrejelzések megtekintéséhez.

A térkép megváltoztatása: kattintson a fekete keresztel jelölt zöld gombra ráközelítéshez, a vonallal jelölt zöld gombra távolításhoz, vagy a zöld nyilakra a szomszédos térképek eléréséhez.


METAR-TAF: